createdAt,value
2024-01-26T00:01:43.269Z,8.03
2024-01-26T00:04:11.552Z,8.01
2024-01-26T00:06:39.935Z,8.03
2024-01-26T00:09:15.024Z,8.07
2024-01-26T00:11:43.877Z,8.11
2024-01-26T00:14:12.156Z,8.20
2024-01-26T00:16:40.202Z,8.27
2024-01-26T00:19:08.621Z,8.31
2024-01-26T00:21:36.706Z,8.34
2024-01-26T00:24:05.143Z,8.36
2024-01-26T00:26:33.207Z,8.36
2024-01-26T00:29:01.296Z,8.38
2024-01-26T00:31:29.336Z,8.37
2024-01-26T00:33:57.489Z,8.37
2024-01-26T00:36:25.525Z,8.35
2024-01-26T00:38:53.503Z,8.34
2024-01-26T00:41:21.543Z,8.33
2024-01-26T00:43:49.647Z,8.29
2024-01-26T00:46:17.682Z,8.25
2024-01-26T00:48:45.792Z,8.23
2024-01-26T00:51:14.008Z,8.21
2024-01-26T00:53:42.032Z,8.19
2024-01-26T00:56:10.117Z,8.16
2024-01-26T00:58:38.222Z,8.11
2024-01-26T01:01:06.553Z,8.10
2024-01-26T01:03:34.669Z,8.05
2024-01-26T01:06:02.954Z,8.03
2024-01-26T01:08:31.388Z,8.04
2024-01-26T01:10:59.407Z,8.00
2024-01-26T01:13:27.568Z,7.99
2024-01-26T01:15:55.590Z,7.97
2024-01-26T01:18:23.851Z,7.97
2024-01-26T01:20:52.006Z,7.98
2024-01-26T01:23:20.213Z,7.97
2024-01-26T01:25:48.260Z,7.94
2024-01-26T01:28:16.303Z,7.93
2024-01-26T01:30:44.375Z,7.93
2024-01-26T01:33:12.528Z,7.94
2024-01-26T01:35:40.688Z,7.94
2024-01-26T01:38:08.800Z,7.96
2024-01-26T01:43:10.164Z,8.06
2024-01-26T01:45:49.844Z,8.01
2024-01-26T01:48:22.770Z,8.03
2024-01-26T01:50:51.303Z,8.04
2024-01-26T01:53:24.396Z,8.06
2024-01-26T01:55:58.842Z,8.07
2024-01-26T01:58:30.323Z,8.06
2024-01-26T02:01:03.058Z,8.06
2024-01-26T02:03:32.310Z,8.01
2024-01-26T02:06:05.786Z,7.98
2024-01-26T02:08:39.957Z,7.97
2024-01-26T02:11:12.913Z,7.94
2024-01-26T02:13:43.301Z,7.92
2024-01-26T02:16:14.597Z,7.91
2024-01-26T02:18:50.120Z,7.89
2024-01-26T02:21:21.145Z,7.87
2024-01-26T02:23:54.211Z,7.85
2024-01-26T02:26:31.659Z,7.82
2024-01-26T02:28:59.889Z,7.82
2024-01-26T02:31:31.588Z,7.79
2024-01-26T02:34:02.426Z,7.80
2024-01-26T02:36:30.851Z,7.79
2024-01-26T02:39:01.975Z,7.78
2024-01-26T02:41:32.249Z,7.72
2024-01-26T02:44:04.337Z,7.67
2024-01-26T02:46:32.519Z,7.63
2024-01-26T02:49:00.719Z,7.57
2024-01-26T02:51:35.107Z,7.57
2024-01-26T02:54:15.043Z,7.55
2024-01-26T02:56:46.121Z,7.52
2024-01-26T02:59:14.167Z,7.54
2024-01-26T03:01:49.349Z,7.57
2024-01-26T03:04:29.280Z,7.58
2024-01-26T03:07:00.562Z,7.64
2024-01-26T03:09:36.950Z,7.67
2024-01-26T03:12:22.995Z,7.68
2024-01-26T03:15:00.992Z,7.70
2024-01-26T03:17:37.014Z,7.68
2024-01-26T03:20:14.699Z,7.69
2024-01-26T03:22:47.958Z,7.67
2024-01-26T03:25:19.567Z,7.66
2024-01-26T03:27:50.200Z,7.66
2024-01-26T03:30:23.459Z,7.67
2024-01-26T03:32:54.936Z,7.64
2024-01-26T03:35:28.790Z,7.64
2024-01-26T03:38:03.725Z,7.65
2024-01-26T03:40:35.492Z,7.65
2024-01-26T03:43:05.704Z,7.65
2024-01-26T03:45:39.035Z,7.64
2024-01-26T03:48:07.416Z,7.61
2024-01-26T03:50:41.436Z,7.62
2024-01-26T03:53:13.441Z,7.64
2024-01-26T03:55:46.233Z,7.65
2024-01-26T03:58:19.813Z,7.64
2024-01-26T04:00:50.929Z,7.65
2024-01-26T04:03:27.988Z,7.62
2024-01-26T04:06:15.151Z,7.67
2024-01-26T04:08:47.945Z,7.73
2024-01-26T04:11:19.869Z,7.77
2024-01-26T04:13:54.056Z,7.75
2024-01-26T04:16:28.994Z,7.74
2024-01-26T04:19:03.177Z,7.73
2024-01-26T04:21:37.055Z,7.74
2024-01-26T04:24:08.590Z,7.70
2024-01-26T04:26:41.859Z,7.74
2024-01-26T04:29:10.399Z,7.76
2024-01-26T04:31:44.620Z,7.72
2024-01-26T04:34:17.871Z,7.72
2024-01-26T04:36:57.180Z,7.76
2024-01-26T04:39:29.979Z,7.78
2024-01-26T04:42:03.113Z,7.80
2024-01-26T04:44:42.409Z,7.80
2024-01-26T04:47:15.239Z,7.81
2024-01-26T04:49:47.220Z,7.87
2024-01-26T04:52:20.203Z,7.87
2024-01-26T04:54:54.031Z,7.86
2024-01-26T04:57:28.114Z,7.88
2024-01-26T04:59:56.177Z,7.87
2024-01-26T05:02:29.038Z,7.87
2024-01-26T05:05:01.341Z,7.83
2024-01-26T05:07:38.570Z,7.83
2024-01-26T05:10:07.846Z,7.81
2024-01-26T05:12:42.752Z,7.85
2024-01-26T05:15:16.653Z,7.83
2024-01-26T05:17:48.567Z,7.81
2024-01-26T05:20:16.718Z,7.82
2024-01-26T05:22:48.582Z,7.87
2024-01-26T05:25:16.714Z,7.88
2024-01-26T05:27:47.890Z,7.87
2024-01-26T05:30:26.948Z,7.90
2024-01-26T05:32:58.034Z,7.89
2024-01-26T05:35:38.970Z,7.89
2024-01-26T05:38:12.822Z,7.86
2024-01-26T05:40:46.235Z,7.87
2024-01-26T05:43:16.785Z,7.84
2024-01-26T05:45:44.934Z,7.86
2024-01-26T05:48:13.296Z,7.80
2024-01-26T05:50:47.900Z,7.78
2024-01-26T05:53:21.696Z,7.81
2024-01-26T05:55:49.788Z,7.85
2024-01-26T05:58:19.295Z,7.88
2024-01-26T06:00:55.095Z,7.87
2024-01-26T06:03:37.424Z,7.87
2024-01-26T06:06:08.404Z,7.86
2024-01-26T06:08:36.577Z,7.88
2024-01-26T06:11:09.402Z,7.86
2024-01-26T06:13:42.862Z,7.85
2024-01-26T06:16:14.941Z,7.83
2024-01-26T06:18:49.101Z,7.85
2024-01-26T06:21:21.311Z,7.87
2024-01-26T06:23:49.507Z,7.90
2024-01-26T06:26:23.323Z,7.91
2024-01-26T06:28:58.560Z,7.93
2024-01-26T06:31:29.938Z,7.93
2024-01-26T06:34:05.325Z,7.90
2024-01-26T06:36:35.703Z,7.89
2024-01-26T06:39:09.603Z,7.86
2024-01-26T06:41:43.707Z,7.86
2024-01-26T06:44:16.554Z,7.90
2024-01-26T06:46:47.497Z,7.92
2024-01-26T06:49:18.287Z,7.97
2024-01-26T06:51:49.682Z,8.02
2024-01-26T06:54:21.436Z,8.07
2024-01-26T06:56:49.669Z,8.13
2024-01-26T06:59:21.031Z,8.16
2024-01-26T07:02:00.734Z,8.20
2024-01-26T07:04:34.570Z,8.24
2024-01-26T07:07:08.301Z,8.26
2024-01-26T07:09:36.706Z,8.21
2024-01-26T07:12:07.974Z,8.24
2024-01-26T07:14:36.357Z,8.27
2024-01-26T07:17:18.895Z,8.25
2024-01-26T07:19:48.664Z,8.20
2024-01-26T07:22:16.907Z,8.21
2024-01-26T07:24:47.746Z,8.20
2024-01-26T07:27:16.013Z,8.19
2024-01-26T07:29:44.275Z,8.24
2024-01-26T07:32:14.897Z,8.23
2024-01-26T07:34:46.033Z,8.24
2024-01-26T07:37:18.812Z,8.21
2024-01-26T07:42:42.162Z,8.28
2024-01-26T07:45:10.908Z,8.21
2024-01-26T07:47:42.715Z,8.21
2024-01-26T07:50:13.680Z,8.25
2024-01-26T07:52:45.738Z,8.30
2024-01-26T07:55:16.882Z,8.35
2024-01-26T07:57:50.766Z,8.40
2024-01-26T08:00:24.714Z,8.43
2024-01-26T08:02:56.872Z,8.47
2024-01-26T08:05:30.815Z,8.52
2024-01-26T08:08:02.700Z,8.58
2024-01-26T08:10:34.137Z,8.63
2024-01-26T08:13:05.348Z,8.68
2024-01-26T08:15:37.837Z,8.72
2024-01-26T08:18:14.047Z,8.76
2024-01-26T08:21:11.195Z,8.86
2024-01-26T08:24:02.696Z,9.09
2024-01-26T08:26:53.093Z,9.32
2024-01-26T08:29:31.885Z,9.50
2024-01-26T08:32:02.862Z,9.68
2024-01-26T08:34:36.484Z,9.67
2024-01-26T08:37:07.689Z,9.67
2024-01-26T08:39:39.091Z,9.68
2024-01-26T08:42:07.647Z,9.74
2024-01-26T08:44:39.836Z,9.74
2024-01-26T08:47:08.463Z,9.74
2024-01-26T08:49:39.954Z,9.79
2024-01-26T08:52:14.953Z,9.88
2024-01-26T08:54:43.026Z,10.01
2024-01-26T08:57:20.013Z,10.42
2024-01-26T08:59:53.371Z,10.76
2024-01-26T09:02:27.911Z,10.96
2024-01-26T09:05:09.047Z,11.13
2024-01-26T09:07:37.206Z,11.33
2024-01-26T09:10:10.217Z,11.46
2024-01-26T09:12:39.657Z,11.49
2024-01-26T09:15:11.821Z,11.45
2024-01-26T09:17:52.519Z,11.36
2024-01-26T09:23:01.702Z,11.16
2024-01-26T09:25:34.726Z,11.13
2024-01-26T09:28:02.725Z,11.08
2024-01-26T09:30:35.488Z,11.05
2024-01-26T09:33:08.558Z,11.02
2024-01-26T09:35:39.531Z,10.98
2024-01-26T09:38:32.881Z,10.98
2024-01-26T09:41:06.493Z,10.95
2024-01-26T09:43:44.171Z,11.00
2024-01-26T09:46:16.872Z,11.03
2024-01-26T09:48:51.929Z,11.03
2024-01-26T09:51:28.986Z,11.08
2024-01-26T09:54:02.448Z,11.08
2024-01-26T09:56:40.294Z,11.08
2024-01-26T09:59:09.944Z,11.09
2024-01-26T10:01:46.916Z,11.04
2024-01-26T10:04:20.024Z,11.10
2024-01-26T10:06:58.296Z,11.07
2024-01-26T10:09:32.673Z,11.08
2024-01-26T10:12:00.787Z,11.03
2024-01-26T10:14:29.078Z,11.05
2024-01-26T10:17:03.641Z,11.11
2024-01-26T10:19:34.592Z,11.14
2024-01-26T10:22:03.336Z,11.13
2024-01-26T10:24:36.059Z,11.14
2024-01-26T10:27:11.042Z,11.13
2024-01-26T10:29:46.178Z,11.10
2024-01-26T10:32:19.341Z,11.10
2024-01-26T10:34:47.993Z,11.11
2024-01-26T10:37:18.787Z,11.07
2024-01-26T10:39:54.924Z,11.05
2024-01-26T10:42:34.960Z,11.03
2024-01-26T10:45:03.845Z,11.02
2024-01-26T10:47:35.882Z,11.03
2024-01-26T10:50:09.053Z,11.04
2024-01-26T10:52:40.571Z,11.03
2024-01-26T10:55:14.751Z,11.04
2024-01-26T10:57:50.880Z,11.06
2024-01-26T11:00:19.499Z,11.07
2024-01-26T11:02:51.879Z,11.11
2024-01-26T11:05:25.092Z,11.13
2024-01-26T11:07:56.849Z,11.14
2024-01-26T11:10:31.203Z,11.13
2024-01-26T11:13:09.033Z,11.13
2024-01-26T11:15:44.719Z,11.13
2024-01-26T11:18:28.998Z,11.14
2024-01-26T11:21:04.075Z,11.16
2024-01-26T11:23:49.147Z,11.15
2024-01-26T11:26:22.561Z,11.15
2024-01-26T11:28:55.517Z,11.15
2024-01-26T11:31:36.286Z,11.14
2024-01-26T11:34:04.750Z,11.15
2024-01-26T11:36:42.322Z,11.13
2024-01-26T11:39:19.528Z,11.13
2024-01-26T11:41:52.443Z,11.11
2024-01-26T11:44:27.981Z,11.11
2024-01-26T11:46:57.144Z,11.10
2024-01-26T11:49:28.567Z,11.09
2024-01-26T11:52:06.905Z,11.09
2024-01-26T11:54:39.544Z,11.10
2024-01-26T11:57:13.515Z,11.09
2024-01-26T11:59:51.690Z,11.08
2024-01-26T12:02:22.659Z,11.07
2024-01-26T12:05:06.467Z,11.05
2024-01-26T12:07:38.813Z,11.06
2024-01-26T12:10:15.419Z,11.05
2024-01-26T12:12:52.055Z,11.04
2024-01-26T12:15:20.473Z,11.03
2024-01-26T12:17:59.953Z,11.00
2024-01-26T12:20:35.450Z,10.98
2024-01-26T12:23:18.648Z,10.92
2024-01-26T12:25:46.995Z,10.90
2024-01-26T12:28:23.309Z,10.89
2024-01-26T12:30:52.864Z,10.88
2024-01-26T12:33:24.033Z,10.86
2024-01-26T12:35:58.937Z,10.81
2024-01-26T12:38:32.733Z,10.74
2024-01-26T12:41:04.143Z,10.68
2024-01-26T12:43:42.325Z,10.66
2024-01-26T12:46:13.547Z,10.63
2024-01-26T12:48:46.582Z,10.56
2024-01-26T12:51:18.584Z,10.54
2024-01-26T12:53:50.982Z,10.51
2024-01-26T12:56:23.975Z,10.48
2024-01-26T12:58:56.903Z,10.44
2024-01-26T13:01:25.284Z,10.39
2024-01-26T13:03:59.563Z,10.33
2024-01-26T13:06:33.885Z,10.28
2024-01-26T13:09:09.285Z,10.22
2024-01-26T13:11:42.884Z,10.18
2024-01-26T13:14:18.936Z,10.13
2024-01-26T13:16:52.995Z,10.11
2024-01-26T13:19:44.224Z,10.08
2024-01-26T13:22:17.665Z,10.06
2024-01-26T13:24:50.812Z,10.04
2024-01-26T13:27:24.626Z,9.99
2024-01-26T13:29:59.808Z,9.98
2024-01-26T13:32:32.280Z,9.92
2024-01-26T13:35:02.260Z,9.89
2024-01-26T13:37:35.164Z,9.89
2024-01-26T13:40:07.393Z,9.89
2024-01-26T13:42:35.678Z,9.87
2024-01-26T13:45:15.866Z,9.83
2024-01-26T13:47:57.236Z,9.80
2024-01-26T13:50:47.115Z,9.79
2024-01-26T13:53:24.795Z,9.77
2024-01-26T13:56:01.536Z,9.74
2024-01-26T13:58:39.981Z,9.72
2024-01-26T14:03:50.599Z,9.71
2024-01-26T14:06:34.720Z,9.73
2024-01-26T14:09:08.517Z,9.68
2024-01-26T14:11:42.501Z,9.67
2024-01-26T14:14:16.462Z,9.65
2024-01-26T14:16:53.133Z,9.66
2024-01-26T14:19:24.334Z,9.65
2024-01-26T14:21:54.875Z,9.62
2024-01-26T14:24:23.191Z,9.60
2024-01-26T14:27:05.759Z,9.60
2024-01-26T14:29:36.925Z,9.58
2024-01-26T14:32:10.898Z,9.59
2024-01-26T14:34:41.917Z,9.55
2024-01-26T14:37:18.438Z,9.57
2024-01-26T14:40:07.703Z,9.53
2024-01-26T14:42:35.999Z,9.54
2024-01-26T14:45:15.199Z,9.52
2024-01-26T14:47:49.544Z,9.52
2024-01-26T14:50:28.047Z,9.51
2024-01-26T14:53:02.172Z,9.51
2024-01-26T14:55:37.264Z,9.51
2024-01-26T14:58:06.235Z,9.48
2024-01-26T15:00:40.987Z,9.50
2024-01-26T15:03:22.354Z,9.48
2024-01-26T15:05:54.234Z,9.51
2024-01-26T15:08:25.114Z,9.49
2024-01-26T15:10:59.607Z,9.52
2024-01-26T15:13:31.129Z,9.47
2024-01-26T15:15:59.466Z,9.48
2024-01-26T15:18:35.216Z,9.48
2024-01-26T15:21:22.584Z,9.48
2024-01-26T15:23:52.990Z,9.48
2024-01-26T15:26:21.783Z,9.44
2024-01-26T15:28:53.399Z,9.44
2024-01-26T15:31:29.258Z,9.41
2024-01-26T15:34:02.280Z,9.41
2024-01-26T15:36:41.211Z,9.41
2024-01-26T15:39:11.659Z,9.36
2024-01-26T15:41:46.116Z,9.37
2024-01-26T15:44:20.868Z,9.37
2024-01-26T15:46:54.570Z,9.33
2024-01-26T15:49:31.379Z,9.32
2024-01-26T15:52:02.503Z,9.33
2024-01-26T15:54:37.358Z,9.31
2024-01-26T15:57:10.226Z,9.29
2024-01-26T15:59:45.692Z,9.28
2024-01-26T16:02:24.488Z,9.30
2024-01-26T16:04:57.713Z,9.30
2024-01-26T16:07:41.835Z,9.28
2024-01-26T16:10:20.161Z,9.25
2024-01-26T16:12:55.427Z,9.23
2024-01-26T16:15:29.748Z,9.25
2024-01-26T16:18:11.364Z,9.23
2024-01-26T16:20:52.519Z,9.19
2024-01-26T16:23:31.236Z,9.18
2024-01-26T16:26:08.205Z,9.16
2024-01-26T16:28:41.464Z,9.11
2024-01-26T16:31:12.859Z,9.12
2024-01-26T16:33:54.169Z,9.08
2024-01-26T16:36:25.015Z,9.11
2024-01-26T16:38:58.012Z,9.08
2024-01-26T16:41:30.963Z,9.05
2024-01-26T16:44:06.823Z,9.05
2024-01-26T16:46:45.096Z,9.07
2024-01-26T16:49:16.027Z,9.05
2024-01-26T16:51:44.171Z,9.06
2024-01-26T16:54:22.116Z,9.04
2024-01-26T16:56:55.556Z,9.05
2024-01-26T16:59:34.859Z,9.06
2024-01-26T17:02:06.181Z,9.10
2024-01-26T17:04:40.568Z,9.12
2024-01-26T17:07:16.506Z,9.10
2024-01-26T17:09:52.889Z,9.08
2024-01-26T17:12:42.183Z,9.13
2024-01-26T17:15:14.939Z,9.13
2024-01-26T17:17:47.878Z,9.12
2024-01-26T17:20:20.794Z,9.11
2024-01-26T17:22:53.553Z,9.12
2024-01-26T17:25:24.413Z,9.14
2024-01-26T17:27:59.165Z,9.16
2024-01-26T17:30:33.225Z,9.16
2024-01-26T17:33:19.909Z,9.17
2024-01-26T17:35:48.214Z,9.20
2024-01-26T17:38:16.365Z,9.20
2024-01-26T17:40:48.284Z,9.22
2024-01-26T17:43:25.140Z,9.20
2024-01-26T17:46:01.802Z,9.20
2024-01-26T17:48:35.740Z,9.20
2024-01-26T17:54:01.084Z,9.32
2024-01-26T17:56:32.173Z,9.27
2024-01-26T17:59:10.249Z,9.30
2024-01-26T18:01:39.876Z,9.32
2024-01-26T18:04:14.038Z,9.31
2024-01-26T18:06:52.968Z,9.31
2024-01-26T18:09:21.707Z,9.29
2024-01-26T18:11:53.303Z,9.30
2024-01-26T18:14:24.163Z,9.31
2024-01-26T18:16:52.254Z,9.28
2024-01-26T18:19:26.509Z,9.26
2024-01-26T18:21:56.064Z,9.28
2024-01-26T18:24:27.480Z,9.26
2024-01-26T18:26:55.602Z,9.29
2024-01-26T18:29:23.865Z,9.33
2024-01-26T18:31:52.346Z,9.32
2024-01-26T18:34:20.657Z,9.32
2024-01-26T18:36:49.028Z,9.35
2024-01-26T18:39:24.208Z,9.36
2024-01-26T18:41:57.865Z,9.43
2024-01-26T18:44:31.064Z,9.43
2024-01-26T18:47:04.957Z,9.42
2024-01-26T18:49:45.516Z,9.42
2024-01-26T18:52:20.924Z,9.42
2024-01-26T18:54:55.477Z,9.41
2024-01-26T18:57:23.583Z,9.41
2024-01-26T18:59:57.907Z,9.42
2024-01-26T19:02:26.604Z,9.45
2024-01-26T19:05:00.705Z,9.48
2024-01-26T19:07:33.541Z,9.49
2024-01-26T19:10:01.813Z,9.48
2024-01-26T19:12:38.891Z,9.51
2024-01-26T19:15:10.911Z,9.52
2024-01-26T19:17:39.299Z,9.53
2024-01-26T19:20:18.356Z,9.55
2024-01-26T19:22:50.196Z,9.54
2024-01-26T19:25:30.472Z,9.55
2024-01-26T19:28:00.070Z,9.56
2024-01-26T19:30:31.729Z,9.57
2024-01-26T19:33:05.541Z,9.56
2024-01-26T19:35:38.896Z,9.60
2024-01-26T19:38:06.961Z,9.60
2024-01-26T19:40:37.388Z,9.59
2024-01-26T19:43:08.559Z,9.58
2024-01-26T19:45:39.459Z,9.58
2024-01-26T19:48:17.571Z,9.57
2024-01-26T19:50:50.269Z,9.55
2024-01-26T19:53:19.070Z,9.51
2024-01-26T19:55:50.151Z,9.49
2024-01-26T19:58:19.896Z,9.49
2024-01-26T20:00:51.397Z,9.47
2024-01-26T20:03:19.497Z,9.48
2024-01-26T20:05:51.683Z,9.47
2024-01-26T20:08:24.532Z,9.44
2024-01-26T20:10:57.879Z,9.44
2024-01-26T20:13:26.068Z,9.43
2024-01-26T20:15:54.294Z,9.41
2024-01-26T20:18:23.865Z,9.40
2024-01-26T20:20:55.085Z,9.40
2024-01-26T20:23:26.746Z,9.38
2024-01-26T20:25:56.236Z,9.39
2024-01-26T20:28:49.989Z,9.38
2024-01-26T20:31:20.946Z,9.38
2024-01-26T20:34:04.493Z,9.37
2024-01-26T20:36:38.277Z,9.36
2024-01-26T20:39:06.630Z,9.33
2024-01-26T20:41:39.744Z,9.31
2024-01-26T20:44:07.992Z,9.27
2024-01-26T20:46:36.119Z,9.24
2024-01-26T20:49:08.439Z,9.17
2024-01-26T20:51:40.495Z,9.14
2024-01-26T20:54:29.000Z,9.11
2024-01-26T20:57:03.181Z,9.07
2024-01-26T20:59:34.239Z,9.01
2024-01-26T21:02:03.877Z,8.96
2024-01-26T21:04:38.546Z,8.90
2024-01-26T21:07:32.016Z,8.89
2024-01-26T21:10:00.166Z,8.86
2024-01-26T21:12:36.438Z,8.81
2024-01-26T21:15:08.406Z,8.73
2024-01-26T21:17:49.497Z,8.71
2024-01-26T21:20:31.975Z,8.66
2024-01-26T21:23:04.676Z,8.61
2024-01-26T21:25:38.609Z,8.58
2024-01-26T21:28:11.935Z,8.51
2024-01-26T21:30:53.357Z,8.47
2024-01-26T21:33:33.207Z,8.42
2024-01-26T21:36:03.751Z,8.40
2024-01-26T21:38:32.102Z,8.38
2024-01-26T21:41:07.045Z,8.36
2024-01-26T21:43:40.867Z,8.35
2024-01-26T21:46:14.005Z,8.29
2024-01-26T21:48:43.053Z,8.24
2024-01-26T21:51:17.271Z,8.22
2024-01-26T21:53:45.637Z,8.19
2024-01-26T21:56:24.537Z,8.18
2024-01-26T21:58:57.522Z,8.15
2024-01-26T22:01:30.288Z,8.14
2024-01-26T22:04:05.889Z,8.09
2024-01-26T22:06:36.712Z,8.03
2024-01-26T22:09:10.270Z,8.01
2024-01-26T22:11:38.540Z,7.98
2024-01-26T22:14:19.107Z,7.96
2024-01-26T22:16:53.367Z,7.96
2024-01-26T22:19:26.330Z,7.95
2024-01-26T22:22:08.521Z,7.92
2024-01-26T22:24:41.643Z,7.90
2024-01-26T22:27:14.362Z,7.89
2024-01-26T22:29:42.757Z,7.88
2024-01-26T22:32:11.410Z,7.85
2024-01-26T22:34:47.457Z,7.87
2024-01-26T22:37:15.744Z,7.86
2024-01-26T22:39:44.151Z,7.83
2024-01-26T22:42:12.301Z,7.85
2024-01-26T22:44:45.249Z,7.84
2024-01-26T22:47:13.619Z,7.82
2024-01-26T22:49:47.765Z,7.78
2024-01-26T22:52:21.526Z,7.77
2024-01-26T22:54:49.519Z,7.75
2024-01-26T22:57:18.415Z,7.70
2024-01-26T22:59:51.408Z,7.69
2024-01-26T23:02:24.495Z,7.66
2024-01-26T23:04:57.465Z,7.61
2024-01-26T23:07:31.241Z,7.61
2024-01-26T23:10:02.108Z,7.61
2024-01-26T23:12:35.844Z,7.61
2024-01-26T23:15:08.917Z,7.60
2024-01-26T23:17:53.661Z,7.59
2024-01-26T23:20:26.431Z,7.58
2024-01-26T23:22:54.521Z,7.57
2024-01-26T23:25:25.357Z,7.55
2024-01-26T23:27:58.171Z,7.53
2024-01-26T23:30:31.469Z,7.54
2024-01-26T23:32:59.606Z,7.53
2024-01-26T23:35:28.905Z,7.52
2024-01-26T23:37:56.972Z,7.51
2024-01-26T23:40:25.094Z,7.50
2024-01-26T23:42:57.838Z,7.50
2024-01-26T23:45:57.480Z,7.51
2024-01-26T23:48:35.416Z,7.50
2024-01-26T23:51:06.275Z,7.48
2024-01-26T23:53:34.420Z,7.48
2024-01-26T23:56:02.616Z,7.48
2024-01-26T23:58:33.348Z,7.45
